createdAt,value
2023-04-16T00:00:57.525Z,98.1831
2023-04-16T00:01:58.514Z,98.2022
2023-04-16T00:02:58.606Z,98.2247
2023-04-16T00:03:59.514Z,98.2487
2023-04-16T00:05:00.413Z,98.2693
2023-04-16T00:06:01.493Z,98.2762
2023-04-16T00:07:02.286Z,98.2967
2023-04-16T00:08:02.956Z,98.2820
2023-04-16T00:09:03.974Z,98.2423
2023-04-16T00:10:04.440Z,98.1787
2023-04-16T00:11:05.427Z,98.1512
2023-04-16T00:12:05.967Z,98.0995
2023-04-16T00:13:06.634Z,98.0673
2023-04-16T00:14:07.312Z,98.0399
2023-04-16T00:15:07.866Z,98.0117
2023-04-16T00:16:08.652Z,97.9391
2023-04-16T00:17:09.665Z,97.9138
2023-04-16T00:18:10.326Z,97.9031
2023-04-16T00:19:11.660Z,97.8974
2023-04-16T00:20:11.538Z,97.8673
2023-04-16T00:21:12.280Z,97.8028
2023-04-16T00:22:12.875Z,97.7687
2023-04-16T00:23:13.518Z,97.7140
2023-04-16T00:24:14.500Z,97.6602
2023-04-16T00:25:15.561Z,97.6478
2023-04-16T00:26:16.166Z,97.6172
2023-04-16T00:27:16.979Z,97.5934
2023-04-16T00:28:17.560Z,97.5756
2023-04-16T00:29:18.840Z,97.5924
2023-04-16T00:30:19.811Z,97.5948
2023-04-16T00:31:20.826Z,97.5455
2023-04-16T00:32:21.142Z,97.5383
2023-04-16T00:33:22.109Z,97.5589
2023-04-16T00:34:22.761Z,97.5933
2023-04-16T00:35:23.302Z,97.6345
2023-04-16T00:36:24.137Z,97.6499
2023-04-16T00:37:24.781Z,97.6627
2023-04-16T00:38:25.799Z,97.6766
2023-04-16T00:39:26.479Z,97.6768
2023-04-16T00:40:27.283Z,97.7215
2023-04-16T00:41:27.900Z,97.7594
2023-04-16T00:42:29.048Z,97.7976
2023-04-16T00:44:29.432Z,97.8363
2023-04-16T00:45:30.198Z,97.8421
2023-04-16T00:46:31.231Z,97.8426
2023-04-16T00:47:31.831Z,97.8381
2023-04-16T00:48:32.651Z,97.8551
2023-04-16T00:49:32.831Z,97.8836
2023-04-16T00:50:33.460Z,97.9081
2023-04-16T00:51:34.155Z,97.9281
2023-04-16T00:52:34.645Z,97.9355
2023-04-16T00:53:35.321Z,97.9505
2023-04-16T00:54:35.928Z,97.9659
2023-04-16T00:55:36.388Z,97.9841
2023-04-16T00:56:37.055Z,97.9992
2023-04-16T00:57:37.610Z,98.0408
2023-04-16T00:58:38.010Z,98.0618
2023-04-16T00:59:38.680Z,98.0858
2023-04-16T01:00:40.081Z,98.0822
2023-04-16T01:01:41.225Z,98.0924
2023-04-16T01:02:42.666Z,98.0987
2023-04-16T01:03:43.675Z,98.1054
2023-04-16T01:04:43.472Z,98.1040
2023-04-16T01:05:44.127Z,98.1009
2023-04-16T01:06:44.482Z,98.1164
2023-04-16T01:07:45.230Z,98.1449
2023-04-16T01:08:45.713Z,98.1624
2023-04-16T01:09:45.944Z,98.1801
2023-04-16T01:10:46.635Z,98.1852
2023-04-16T01:11:46.972Z,98.1420
2023-04-16T01:12:47.647Z,98.0894
2023-04-16T01:13:48.256Z,98.0700
2023-04-16T01:14:48.797Z,98.0612
2023-04-16T01:15:49.628Z,98.0371
2023-04-16T01:16:50.369Z,98.0023
2023-04-16T01:17:51.218Z,97.9998
2023-04-16T01:18:51.992Z,98.0030
2023-04-16T01:19:53.056Z,97.9902
2023-04-16T01:20:53.692Z,98.0111
2023-04-16T01:21:54.396Z,98.0414
2023-04-16T01:22:55.189Z,98.0680
2023-04-16T01:23:55.842Z,98.0688
2023-04-16T01:24:56.589Z,98.0805
2023-04-16T01:25:57.205Z,98.0844
2023-04-16T01:26:57.908Z,98.0505
2023-04-16T01:27:58.293Z,98.0397
2023-04-16T01:28:58.896Z,98.0570
2023-04-16T01:29:59.603Z,98.0836
2023-04-16T01:31:00.067Z,98.1187
2023-04-16T01:32:01.196Z,98.1399
2023-04-16T01:33:02.232Z,98.1583
2023-04-16T01:34:02.711Z,98.1732
2023-04-16T01:35:03.379Z,98.1632
2023-04-16T01:36:03.817Z,98.1222
2023-04-16T01:37:04.428Z,98.1328
2023-04-16T01:38:05.262Z,98.1578
2023-04-16T01:39:05.708Z,98.1579
2023-04-16T01:40:05.764Z,98.1673
2023-04-16T01:41:06.339Z,98.1847
2023-04-16T01:42:06.884Z,98.1953
2023-04-16T01:43:07.498Z,98.1972
2023-04-16T01:44:07.601Z,98.2061
2023-04-16T01:45:08.385Z,98.2239
2023-04-16T01:46:09.174Z,98.2560
2023-04-16T01:47:09.756Z,98.2789
2023-04-16T01:48:10.500Z,98.2999
2023-04-16T01:49:11.354Z,98.3307
2023-04-16T01:50:12.259Z,98.3443
2023-04-16T01:51:12.944Z,98.3648
2023-04-16T01:52:13.774Z,98.3724
2023-04-16T01:53:14.229Z,98.3872
2023-04-16T01:54:14.936Z,98.4053
2023-04-16T01:55:15.404Z,98.4315
2023-04-16T01:56:16.122Z,98.4618
2023-04-16T01:57:16.829Z,98.4863
2023-04-16T01:58:17.213Z,98.5198
2023-04-16T01:59:18.156Z,98.5327
2023-04-16T02:00:18.844Z,98.5390
2023-04-16T02:01:19.558Z,98.5137
2023-04-16T02:02:19.904Z,98.4969
2023-04-16T02:03:20.211Z,98.4908
2023-04-16T02:04:20.968Z,98.4889
2023-04-16T02:05:21.510Z,98.4955
2023-04-16T02:06:22.187Z,98.4952
2023-04-16T02:07:22.843Z,98.4940
2023-04-16T02:08:23.553Z,98.5085
2023-04-16T02:11:24.340Z,98.5418
2023-04-16T02:12:24.979Z,98.5316
2023-04-16T02:13:25.469Z,98.5171
2023-04-16T02:14:26.283Z,98.5083
2023-04-16T02:15:26.853Z,98.4999
2023-04-16T02:16:27.412Z,98.4968
2023-04-16T02:17:28.597Z,98.4610
2023-04-16T02:18:29.453Z,98.4514
2023-04-16T02:19:30.373Z,98.4400
2023-04-16T02:20:30.991Z,98.4337
2023-04-16T02:21:31.345Z,98.3992
2023-04-16T02:22:32.015Z,98.3669
2023-04-16T02:23:32.820Z,98.3520
2023-04-16T02:24:33.985Z,98.3399
2023-04-16T02:25:34.914Z,98.3431
2023-04-16T02:26:35.649Z,98.3488
2023-04-16T02:27:36.232Z,98.3310
2023-04-16T02:28:36.950Z,98.3198
2023-04-16T02:29:37.459Z,98.2791
2023-04-16T02:30:38.074Z,98.2803
2023-04-16T02:31:38.775Z,98.3050
2023-04-16T02:32:39.757Z,98.3379
2023-04-16T02:33:40.711Z,98.3547
2023-04-16T02:34:41.437Z,98.3661
2023-04-16T02:35:41.844Z,98.3616
2023-04-16T02:36:42.484Z,98.3537
2023-04-16T02:37:43.120Z,98.3535
2023-04-16T02:38:43.792Z,98.3571
2023-04-16T02:39:44.016Z,98.3505
2023-04-16T02:40:44.657Z,98.3409
2023-04-16T02:41:45.415Z,98.3550
2023-04-16T02:42:45.958Z,98.3729
2023-04-16T02:43:46.326Z,98.3956
2023-04-16T02:44:46.979Z,98.3978
2023-04-16T02:45:47.760Z,98.4046
2023-04-16T02:46:48.709Z,98.3992
2023-04-16T02:47:49.634Z,98.4086
2023-04-16T02:48:50.752Z,98.4070
2023-04-16T02:49:51.574Z,98.4256
2023-04-16T02:50:52.458Z,98.4462
2023-04-16T02:51:52.870Z,98.4670
2023-04-16T02:52:53.613Z,98.4771
2023-04-16T02:53:54.040Z,98.4788
2023-04-16T02:54:54.722Z,98.4677
2023-04-16T02:55:55.391Z,98.4696
2023-04-16T02:56:55.872Z,98.4802
2023-04-16T02:57:56.795Z,98.4647
2023-04-16T02:58:57.437Z,98.4619
2023-04-16T02:59:58.489Z,98.4637
2023-04-16T03:00:58.606Z,98.4573
2023-04-16T03:02:00.173Z,98.4774
2023-04-16T03:03:00.276Z,98.4940
2023-04-16T03:04:01.313Z,98.5132
2023-04-16T03:05:02.497Z,98.5230
2023-04-16T03:06:03.148Z,98.5140
2023-04-16T03:07:04.151Z,98.5233
2023-04-16T03:08:04.725Z,98.5369
2023-04-16T03:09:05.461Z,98.5408
2023-04-16T03:10:05.529Z,98.5748
2023-04-16T03:11:06.163Z,98.6122
2023-04-16T03:12:06.849Z,98.6282
2023-04-16T03:13:07.316Z,98.6359
2023-04-16T03:14:08.328Z,98.6448
2023-04-16T03:15:09.620Z,98.6414
2023-04-16T03:16:10.875Z,98.6511
2023-04-16T03:17:12.042Z,98.6762
2023-04-16T03:18:12.988Z,98.6945
2023-04-16T03:19:13.314Z,98.6795
2023-04-16T03:20:14.094Z,98.6497
2023-04-16T03:21:14.735Z,98.6524
2023-04-16T03:22:15.431Z,98.6595
2023-04-16T03:23:16.024Z,98.6766
2023-04-16T03:24:16.532Z,98.7064
2023-04-16T03:25:16.552Z,98.7343
2023-04-16T03:26:17.413Z,98.7671
2023-04-16T03:27:18.029Z,98.7904
2023-04-16T03:28:18.601Z,98.7757
2023-04-16T03:29:19.333Z,98.7770
2023-04-16T03:30:20.336Z,98.7719
2023-04-16T03:32:21.142Z,98.7864
2023-04-16T03:33:21.202Z,98.7956
2023-04-16T03:34:21.844Z,98.8109
2023-04-16T03:35:22.480Z,98.8429
2023-04-16T03:36:23.248Z,98.8564
2023-04-16T03:37:24.173Z,98.8626
2023-04-16T03:38:24.958Z,98.8411
2023-04-16T03:39:25.493Z,98.8504
2023-04-16T03:40:26.130Z,98.8828
2023-04-16T03:41:26.714Z,98.9066
2023-04-16T03:42:27.299Z,98.9183
2023-04-16T03:43:27.695Z,98.9306
2023-04-16T03:44:28.512Z,98.9396
2023-04-16T03:45:29.020Z,98.9488
2023-04-16T03:46:29.807Z,98.9556
2023-04-16T03:47:31.038Z,98.9477
2023-04-16T03:48:31.994Z,98.9402
2023-04-16T03:49:32.030Z,98.9326
2023-04-16T03:50:32.550Z,98.9335
2023-04-16T03:51:33.381Z,98.9343
2023-04-16T03:52:34.144Z,98.9340
2023-04-16T03:53:34.707Z,98.9129
2023-04-16T03:54:35.205Z,98.8942
2023-04-16T03:55:35.996Z,98.8844
2023-04-16T03:56:36.722Z,98.8852
2023-04-16T03:57:37.637Z,98.8994
2023-04-16T03:58:38.219Z,98.9019
2023-04-16T03:59:39.102Z,98.9293
2023-04-16T04:00:39.971Z,98.9530
2023-04-16T04:01:40.830Z,98.9859
2023-04-16T04:02:41.613Z,99.0031
2023-04-16T04:03:42.396Z,99.0058
2023-04-16T04:04:43.747Z,98.9977
2023-04-16T04:05:43.707Z,99.0033
2023-04-16T04:06:44.345Z,99.0093
2023-04-16T04:07:45.099Z,99.0359
2023-04-16T04:08:45.643Z,99.0301
2023-04-16T04:09:46.429Z,99.0073
2023-04-16T04:10:49.539Z,99.0127
2023-04-16T04:11:51.099Z,99.0154
2023-04-16T04:12:51.852Z,99.0324
2023-04-16T04:16:57.149Z,99.0975
2023-04-16T04:17:57.415Z,99.1055
2023-04-16T04:18:58.364Z,99.1178
2023-04-16T04:20:03.204Z,99.1090
2023-04-16T04:21:03.817Z,99.1231
2023-04-16T04:22:04.469Z,99.1373
2023-04-16T04:23:05.230Z,99.1407
2023-04-16T04:24:05.764Z,99.1558
2023-04-16T04:25:06.104Z,99.1686
2023-04-16T04:26:06.979Z,99.1680
2023-04-16T04:27:07.638Z,99.1647
2023-04-16T04:28:08.269Z,99.1766
2023-04-16T04:29:09.243Z,99.1961
2023-04-16T04:30:10.094Z,99.2128
2023-04-16T04:31:11.192Z,99.2150
2023-04-16T04:32:11.909Z,99.1980
2023-04-16T04:33:12.613Z,99.1901
2023-04-16T04:34:13.496Z,99.1828
2023-04-16T04:35:14.358Z,99.1709
2023-04-16T04:36:14.969Z,99.1755
2023-04-16T04:37:15.714Z,99.1830
2023-04-16T04:38:16.349Z,99.1907
2023-04-16T04:39:16.296Z,99.2117
2023-04-16T04:40:17.210Z,99.2286
2023-04-16T04:41:17.878Z,99.2488
2023-04-16T04:42:18.719Z,99.2587
2023-04-16T04:43:19.382Z,99.2719
2023-04-16T04:44:19.848Z,99.2782
2023-04-16T04:45:20.503Z,99.2882
2023-04-16T04:46:21.463Z,99.2977
2023-04-16T04:49:22.635Z,99.3315
2023-04-16T04:50:23.390Z,99.3351
2023-04-16T04:51:24.747Z,99.3448
2023-04-16T04:52:25.408Z,99.3455
2023-04-16T04:53:26.616Z,99.3404
2023-04-16T04:54:27.100Z,99.3364
2023-04-16T04:55:27.959Z,99.3527
2023-04-16T04:56:28.100Z,99.3663
2023-04-16T04:57:28.471Z,99.3673
2023-04-16T04:58:29.385Z,99.3731
2023-04-16T04:59:30.136Z,99.3737
2023-04-16T05:00:30.752Z,99.3761
2023-04-16T05:01:30.823Z,99.3876
2023-04-16T05:02:31.618Z,99.4007
2023-04-16T05:03:31.987Z,99.4091
2023-04-16T05:04:32.353Z,99.4218
2023-04-16T05:05:32.348Z,99.4319
2023-04-16T05:06:33.032Z,99.4428
2023-04-16T05:07:33.438Z,99.4520
2023-04-16T05:08:34.130Z,99.4698
2023-04-16T05:09:34.875Z,99.4818
2023-04-16T05:10:35.544Z,99.4920
2023-04-16T05:11:36.323Z,99.4966
2023-04-16T05:12:36.797Z,99.5101
2023-04-16T05:13:37.658Z,99.5279
2023-04-16T05:14:38.384Z,99.5424
2023-04-16T05:15:38.679Z,99.5477
2023-04-16T05:16:39.583Z,99.5604
2023-04-16T05:17:40.013Z,99.5630
2023-04-16T05:18:41.302Z,99.5666
2023-04-16T05:19:41.708Z,99.5719
2023-04-16T05:20:42.937Z,99.5765
2023-04-16T05:21:42.908Z,99.5862
2023-04-16T05:22:43.520Z,99.5937
2023-04-16T05:23:44.366Z,99.6093
2023-04-16T05:24:45.082Z,99.6166
2023-04-16T05:25:45.793Z,99.6081
2023-04-16T05:26:46.575Z,99.6153
2023-04-16T05:27:47.588Z,99.6131
2023-04-16T05:28:48.178Z,99.6171
2023-04-16T05:29:49.142Z,99.6205
2023-04-16T05:30:49.715Z,99.6253
2023-04-16T05:31:50.753Z,99.6345
2023-04-16T05:32:51.647Z,99.6384
2023-04-16T05:33:52.842Z,99.6349
2023-04-16T05:34:53.479Z,99.6259
2023-04-16T05:35:54.837Z,99.6158
2023-04-16T05:36:55.775Z,99.6170
2023-04-16T05:37:56.800Z,99.6008
2023-04-16T05:38:57.313Z,99.5906
2023-04-16T05:39:58.084Z,99.5854
2023-04-16T05:40:58.815Z,99.5794
2023-04-16T05:41:59.539Z,99.5835
2023-04-16T05:43:00.326Z,99.5884
2023-04-16T05:44:01.131Z,99.5968
2023-04-16T05:45:01.732Z,99.5977
2023-04-16T05:46:02.277Z,99.5949
2023-04-16T05:47:03.244Z,99.6023
2023-04-16T05:48:03.983Z,99.5863
2023-04-16T05:50:04.608Z,99.5869
2023-04-16T05:51:05.827Z,99.5751
2023-04-16T05:52:06.533Z,99.5693
2023-04-16T05:53:07.056Z,99.5731
2023-04-16T05:54:07.830Z,99.5637
2023-04-16T05:55:08.449Z,99.5655
2023-04-16T05:56:08.969Z,99.5582
2023-04-16T05:57:10.359Z,99.5639
2023-04-16T05:58:10.642Z,99.5690
2023-04-16T05:59:11.334Z,99.5803
2023-04-16T06:00:11.317Z,99.5872
2023-04-16T06:01:11.770Z,99.5973
2023-04-16T06:02:12.666Z,99.6014
2023-04-16T06:03:14.116Z,99.6060
2023-04-16T06:04:14.174Z,99.6070
2023-04-16T06:06:14.792Z,99.6058
2023-04-16T06:07:15.753Z,99.6141
2023-04-16T06:08:16.480Z,99.6111
2023-04-16T06:09:17.666Z,99.5990
2023-04-16T06:10:18.451Z,99.5916
2023-04-16T06:11:22.527Z,99.5776
2023-04-16T06:12:20.871Z,99.5725
2023-04-16T06:13:21.458Z,99.5741
2023-04-16T06:14:22.452Z,99.5756
2023-04-16T06:15:23.836Z,99.5825
2023-04-16T06:16:23.934Z,99.5772
2023-04-16T06:17:41.203Z,99.5709
2023-04-16T06:18:24.569Z,99.5502
2023-04-16T06:19:25.702Z,99.5409
2023-04-16T06:20:26.195Z,99.5232
2023-04-16T06:21:27.006Z,99.5085
2023-04-16T06:22:27.109Z,99.5091
2023-04-16T06:23:28.181Z,99.5018
2023-04-16T06:24:29.132Z,99.4958
2023-04-16T06:25:30.162Z,99.4608
2023-04-16T06:26:31.468Z,99.4320
2023-04-16T06:28:32.332Z,99.3943
2023-04-16T06:29:41.131Z,99.3832
2023-04-16T06:30:34.459Z,99.3728
2023-04-16T06:31:34.693Z,99.3367
2023-04-16T06:32:35.482Z,99.2890
2023-04-16T06:33:36.699Z,99.2748
2023-04-16T06:34:37.070Z,99.2689
2023-04-16T06:37:41.958Z,99.2593
2023-04-16T06:38:42.578Z,99.2616
2023-04-16T06:39:43.638Z,99.2620
2023-04-16T06:40:44.829Z,99.2292
2023-04-16T06:43:48.369Z,99.1850
2023-04-16T06:49:54.184Z,99.1375
2023-04-16T06:57:02.299Z,99.1438
2023-04-16T06:58:03.421Z,99.1373
2023-04-16T06:59:03.741Z,99.1192
2023-04-16T07:01:04.148Z,99.1071
2023-04-16T07:02:04.399Z,99.1320
2023-04-16T07:03:05.392Z,99.1548
2023-04-16T07:04:05.709Z,99.1670
2023-04-16T07:05:05.608Z,99.1603
2023-04-16T07:06:07.276Z,99.1490
2023-04-16T07:07:07.333Z,99.1500
2023-04-16T07:09:07.454Z,99.0951
2023-04-16T07:10:08.373Z,99.0629
2023-04-16T07:11:08.542Z,99.0070
2023-04-16T07:12:08.694Z,98.9725
2023-04-16T07:13:09.369Z,98.9363
2023-04-16T07:14:10.735Z,98.8963
2023-04-16T07:15:11.327Z,98.8884
2023-04-16T07:16:11.705Z,98.9056
2023-04-16T07:19:14.209Z,98.9864
2023-04-16T07:20:14.710Z,99.0000
2023-04-16T07:21:16.141Z,98.9868
2023-04-16T07:23:17.000Z,98.9092
2023-04-16T07:24:17.754Z,98.8268
2023-04-16T07:25:18.033Z,98.7726
2023-04-16T07:26:20.164Z,98.7791
2023-04-16T07:31:25.601Z,98.6635
2023-04-16T07:32:26.424Z,98.6713
2023-04-16T07:33:26.954Z,98.7190
2023-04-16T07:34:27.894Z,98.7589
2023-04-16T07:35:28.658Z,98.7576
2023-04-16T07:40:30.970Z,98.6821
2023-04-16T07:41:32.008Z,98.5816
2023-04-16T07:45:35.350Z,98.3792
2023-04-16T07:46:46.159Z,98.3333
2023-04-16T07:47:37.341Z,98.3527
2023-04-16T07:48:38.335Z,98.4086
2023-04-16T07:49:39.302Z,98.4436
2023-04-16T07:50:39.993Z,98.5173
2023-04-16T07:51:40.535Z,98.5606
2023-04-16T07:52:42.470Z,98.6069
2023-04-16T07:53:42.724Z,98.6320
2023-04-16T07:57:45.530Z,98.5883
2023-04-16T07:58:46.747Z,98.5632
2023-04-16T08:03:52.853Z,98.6010
2023-04-16T08:04:53.564Z,98.6124
2023-04-16T08:05:54.354Z,98.6054
2023-04-16T08:13:04.963Z,98.4345
2023-04-16T08:14:05.548Z,98.5144
2023-04-16T08:15:06.136Z,98.5783
2023-04-16T08:16:06.776Z,98.6381
2023-04-16T08:17:08.825Z,98.7142
2023-04-16T08:18:09.518Z,98.7370
2023-04-16T08:19:11.038Z,98.7503
2023-04-16T08:25:16.654Z,98.6395
2023-04-16T08:26:17.451Z,98.6285
2023-04-16T08:27:20.516Z,98.6209
2023-04-16T08:28:20.563Z,98.6548
2023-04-16T08:29:21.365Z,98.6946
2023-04-16T08:30:21.602Z,98.7315
2023-04-16T08:31:22.386Z,98.7631
2023-04-16T08:32:24.421Z,98.7680
2023-04-16T08:33:26.384Z,98.7520
2023-04-16T08:34:28.455Z,98.7039
2023-04-16T08:35:30.511Z,98.6115
2023-04-16T08:36:32.828Z,98.5460
2023-04-16T08:37:34.217Z,98.5779
2023-04-16T08:38:35.458Z,98.5066
2023-04-16T08:39:45.026Z,98.4727
2023-04-16T08:40:45.494Z,98.3699
2023-04-16T08:41:46.878Z,98.2926
2023-04-16T08:43:49.402Z,98.1680
2023-04-16T08:46:51.419Z,98.1656
2023-04-16T08:47:52.128Z,98.1435
2023-04-16T08:48:52.323Z,98.1590
2023-04-16T08:49:53.422Z,98.1087
2023-04-16T08:50:53.902Z,98.0589
2023-04-16T08:51:55.253Z,98.0496
2023-04-16T08:52:56.136Z,98.0162
2023-04-16T08:53:56.525Z,97.9075
2023-04-16T08:54:59.549Z,97.7474
2023-04-16T08:55:59.124Z,97.6384
2023-04-16T08:57:00.014Z,97.6887
2023-04-16T08:58:01.169Z,97.7260
2023-04-16T08:59:01.663Z,97.8109
2023-04-16T09:00:02.284Z,97.7909
2023-04-16T09:01:02.810Z,97.7062
2023-04-16T09:02:03.845Z,97.7269
2023-04-16T09:03:04.915Z,97.7247
2023-04-16T09:04:05.709Z,97.7412
2023-04-16T09:05:05.358Z,97.9358
2023-04-16T09:06:06.072Z,97.9676
2023-04-16T09:07:06.463Z,97.8516
2023-04-16T09:08:07.030Z,97.8109
2023-04-16T09:09:08.256Z,97.8235
2023-04-16T09:10:08.813Z,97.6936
2023-04-16T09:11:09.411Z,97.7062
2023-04-16T09:12:09.983Z,97.8193
2023-04-16T09:13:10.488Z,97.9144
2023-04-16T09:14:11.198Z,97.9518
2023-04-16T09:15:11.914Z,97.9535
2023-04-16T09:18:13.976Z,97.9437
2023-04-16T09:19:15.301Z,97.9472
2023-04-16T09:20:16.176Z,97.8396
2023-04-16T09:21:16.698Z,97.7424
2023-04-16T09:22:16.972Z,97.7438
2023-04-16T09:23:17.575Z,97.8162
2023-04-16T09:24:18.820Z,97.8633
2023-04-16T09:25:20.012Z,97.8397
2023-04-16T09:28:24.339Z,97.9437
2023-04-16T09:29:25.118Z,97.9487
2023-04-16T09:30:25.808Z,97.9376
2023-04-16T09:31:28.113Z,97.9471
2023-04-16T09:32:34.734Z,97.9562
2023-04-16T09:33:35.147Z,97.8551
2023-04-16T09:34:36.418Z,97.7062
2023-04-16T09:35:36.912Z,97.7459
2023-04-16T09:36:37.649Z,97.6945
2023-04-16T09:37:38.160Z,97.6538
2023-04-16T09:38:38.920Z,97.7085
2023-04-16T09:39:39.787Z,97.7236
2023-04-16T09:40:40.665Z,97.6885
2023-04-16T09:41:41.564Z,97.5673
2023-04-16T09:42:42.069Z,97.5413
2023-04-16T09:43:42.476Z,97.5723
2023-04-16T09:44:43.251Z,97.5565
2023-04-16T09:45:43.572Z,97.5449
2023-04-16T09:46:43.925Z,97.4166
2023-04-16T09:47:45.144Z,97.3562
2023-04-16T09:48:46.009Z,97.4390
2023-04-16T09:49:46.226Z,97.4953
2023-04-16T09:50:46.643Z,97.5233
2023-04-16T09:51:47.183Z,97.5494
2023-04-16T09:52:48.200Z,97.6229
2023-04-16T09:53:48.716Z,97.6518
2023-04-16T09:54:49.486Z,97.7141
2023-04-16T09:55:50.133Z,97.8638
2023-04-16T09:56:50.711Z,97.9636
2023-04-16T09:57:51.482Z,97.9560
2023-04-16T09:58:52.457Z,97.9219
2023-04-16T09:59:53.017Z,97.9035
2023-04-16T10:00:53.256Z,97.9361
2023-04-16T10:02:14.197Z,98.0043
2023-04-16T10:02:54.008Z,98.0726
2023-04-16T10:03:54.637Z,98.1399
2023-04-16T10:04:55.574Z,98.1900
2023-04-16T10:05:56.759Z,98.1984
2023-04-16T10:06:57.454Z,98.1434
2023-04-16T10:07:58.458Z,98.1409
2023-04-16T10:08:59.820Z,98.1725
2023-04-16T10:10:00.182Z,98.1361
2023-04-16T10:12:01.489Z,97.9905
2023-04-16T10:13:01.595Z,97.9536
2023-04-16T10:14:03.314Z,97.9698
2023-04-16T10:15:03.842Z,98.0173
2023-04-16T10:16:05.593Z,98.0603
2023-04-16T10:17:07.360Z,98.0664
2023-04-16T10:18:08.382Z,97.9883
2023-04-16T10:19:09.172Z,97.9032
2023-04-16T10:20:09.984Z,97.8917
2023-04-16T10:21:10.743Z,97.9101
2023-04-16T10:22:12.712Z,97.9589
2023-04-16T10:23:14.848Z,97.9240
2023-04-16T10:24:16.220Z,97.8650
2023-04-16T10:25:17.350Z,97.8274
2023-04-16T10:31:25.476Z,97.4027
2023-04-16T10:32:26.124Z,97.4974
2023-04-16T10:33:27.805Z,97.5373
2023-04-16T10:34:28.312Z,97.6370
2023-04-16T10:35:29.370Z,97.6289
2023-04-16T10:37:30.983Z,97.5212
2023-04-16T10:38:31.917Z,97.5005
2023-04-16T10:39:32.973Z,97.4856
2023-04-16T10:40:33.946Z,97.4327
2023-04-16T10:41:34.548Z,97.3274
2023-04-16T10:43:36.438Z,97.1403
2023-04-16T10:45:38.290Z,97.2183
2023-04-16T10:46:38.456Z,97.0297
2023-04-16T10:47:38.797Z,96.9734
2023-04-16T10:51:48.557Z,97.1036
2023-04-16T10:52:49.216Z,96.8108
2023-04-16T10:53:50.245Z,96.8663
2023-04-16T10:54:51.718Z,96.6835
2023-04-16T10:55:53.446Z,96.6718
2023-04-16T10:56:54.515Z,96.8135
2023-04-16T10:57:54.879Z,96.9869
2023-04-16T10:58:55.563Z,97.2557
2023-04-16T10:59:56.304Z,97.3406
2023-04-16T11:00:57.077Z,97.4115
2023-04-16T11:01:58.627Z,97.4444
2023-04-16T11:03:00.538Z,97.3309
2023-04-16T11:04:00.903Z,97.1426
2023-04-16T11:05:01.926Z,96.9124
2023-04-16T11:07:02.989Z,97.0465
2023-04-16T11:08:03.982Z,97.1228
2023-04-16T11:09:05.021Z,97.2908
2023-04-16T11:10:05.868Z,97.3362
2023-04-16T11:11:06.888Z,97.1579
2023-04-16T11:12:07.852Z,96.9984
2023-04-16T11:13:08.542Z,96.9057
2023-04-16T11:14:16.405Z,96.9915
2023-04-16T11:15:16.686Z,97.1291
2023-04-16T11:16:17.241Z,97.2091
2023-04-16T11:17:22.134Z,97.1422
2023-04-16T11:18:23.027Z,97.0509
2023-04-16T11:19:24.155Z,96.9573
2023-04-16T11:20:25.080Z,96.7531
2023-04-16T11:21:25.362Z,96.4887
2023-04-16T11:22:25.928Z,96.0840
2023-04-16T11:26:32.397Z,95.9772
2023-04-16T11:27:33.541Z,96.2857
2023-04-16T11:28:35.096Z,96.6369
2023-04-16T11:29:35.847Z,96.8072
2023-04-16T11:30:36.555Z,96.9164
2023-04-16T11:31:37.677Z,96.9470
2023-04-16T11:32:38.550Z,96.7380
2023-04-16T11:33:39.409Z,96.5230
2023-04-16T11:34:39.978Z,96.5457
2023-04-16T11:35:40.731Z,96.6583
2023-04-16T11:36:41.094Z,96.7368
2023-04-16T11:37:45.822Z,96.9331
2023-04-16T11:40:46.124Z,97.0215
2023-04-16T11:41:47.276Z,97.0756
2023-04-16T11:42:52.956Z,97.1515
2023-04-16T11:43:53.024Z,97.1377
2023-04-16T11:44:53.663Z,97.1184
2023-04-16T11:45:54.508Z,97.1688
2023-04-16T11:46:58.886Z,97.2076
2023-04-16T11:47:59.904Z,97.2372
2023-04-16T11:49:00.736Z,97.2641
2023-04-16T11:50:05.704Z,97.2960
2023-04-16T11:51:06.617Z,97.4016
2023-04-16T11:52:07.256Z,97.4625
2023-04-16T11:53:07.763Z,97.5329
2023-04-16T11:54:11.138Z,97.5699
2023-04-16T11:55:08.804Z,97.6008
2023-04-16T11:56:09.379Z,97.5998
2023-04-16T11:57:09.936Z,97.5952
2023-04-16T11:58:10.559Z,97.6022
2023-04-16T11:59:11.514Z,97.5464
2023-04-16T12:00:12.616Z,97.4191
2023-04-16T12:01:12.775Z,97.4626
2023-04-16T12:02:13.523Z,97.5464
2023-04-16T12:03:14.879Z,97.5546
2023-04-16T12:04:20.213Z,97.4826
2023-04-16T12:05:20.495Z,97.4530
2023-04-16T12:06:22.228Z,97.5489
2023-04-16T12:07:21.374Z,97.5500
2023-04-16T12:08:22.124Z,97.4340
2023-04-16T12:09:23.551Z,97.2914
2023-04-16T12:10:25.581Z,97.0782
2023-04-16T12:11:27.246Z,96.9493
2023-04-16T12:12:27.988Z,96.7318
2023-04-16T12:13:27.918Z,96.6827
2023-04-16T12:14:28.080Z,96.8742
2023-04-16T12:15:29.894Z,96.9271
2023-04-16T12:16:31.162Z,96.7409
2023-04-16T12:17:31.435Z,96.5750
2023-04-16T12:18:31.544Z,96.5291
2023-04-16T12:19:32.049Z,96.6459
2023-04-16T12:20:33.612Z,96.5190
2023-04-16T12:21:35.098Z,96.5885
2023-04-16T12:22:36.857Z,96.5203
2023-04-16T12:23:35.843Z,96.4884
2023-04-16T12:27:42.517Z,96.2031
2023-04-16T12:28:44.193Z,96.2618
2023-04-16T12:29:44.952Z,96.2417
2023-04-16T12:32:46.296Z,95.8731
2023-04-16T12:33:47.168Z,96.0215
2023-04-16T12:34:49.863Z,96.1291
2023-04-16T12:35:49.986Z,96.0445
2023-04-16T12:36:51.348Z,96.0277
2023-04-16T12:38:52.620Z,96.1947
2023-04-16T12:39:53.259Z,96.0592
2023-04-16T12:40:54.022Z,96.0427
2023-04-16T12:45:00.487Z,96.2029
2023-04-16T12:50:03.478Z,96.1513
2023-04-16T12:51:04.324Z,95.9616
2023-04-16T12:52:04.459Z,95.6663
2023-04-16T12:53:06.162Z,95.7573
2023-04-16T12:54:07.114Z,95.6475
2023-04-16T12:55:06.476Z,95.6687
2023-04-16T12:56:07.234Z,95.8785
2023-04-16T12:57:08.545Z,95.9777
2023-04-16T12:58:11.886Z,96.0864
2023-04-16T12:59:10.531Z,95.8992
2023-04-16T13:00:10.416Z,95.6845
2023-04-16T13:01:11.232Z,95.2785
2023-04-16T13:02:11.836Z,95.4059
2023-04-16T13:03:14.240Z,95.6718
2023-04-16T13:04:14.717Z,95.8927
2023-04-16T13:05:14.764Z,96.0208
2023-04-16T13:08:17.540Z,95.4155
2023-04-16T13:09:18.920Z,95.4553
2023-04-16T13:10:19.550Z,95.6429
2023-04-16T13:11:20.278Z,95.7102
2023-04-16T13:14:22.271Z,96.0612
2023-04-16T13:15:23.144Z,96.2131
2023-04-16T13:16:23.503Z,96.3612
2023-04-16T13:17:25.033Z,96.3769
2023-04-16T13:18:25.153Z,96.2158
2023-04-16T13:19:26.204Z,96.0258
2023-04-16T13:20:27.386Z,95.9736
2023-04-16T13:21:29.067Z,96.0091
2023-04-16T13:22:29.872Z,96.0692
2023-04-16T13:24:30.570Z,95.8815
2023-04-16T13:25:32.090Z,95.8176
2023-04-16T13:26:32.356Z,95.7512
2023-04-16T13:27:34.060Z,95.7557
2023-04-16T13:28:35.984Z,95.8236
2023-04-16T13:29:35.993Z,95.9600
2023-04-16T13:30:36.521Z,96.1572
2023-04-16T13:31:37.777Z,96.2887
2023-04-16T13:32:37.845Z,96.1822
2023-04-16T13:34:38.610Z,96.2907
2023-04-16T13:42:48.459Z,95.7465
2023-04-16T13:43:48.677Z,95.5374
2023-04-16T13:49:55.348Z,95.9210
2023-04-16T13:50:55.947Z,96.0688
2023-04-16T13:51:57.375Z,96.2516
2023-04-16T13:53:57.545Z,96.3940
2023-04-16T13:55:01.341Z,96.0880
2023-04-16T13:56:02.562Z,96.2930
2023-04-16T13:57:04.262Z,96.5445
2023-04-16T13:58:05.002Z,96.5616
2023-04-16T13:59:07.082Z,96.2037
2023-04-16T14:00:08.023Z,96.0102
2023-04-16T14:01:09.019Z,95.9220
2023-04-16T14:03:10.024Z,95.7857
2023-04-16T14:06:11.554Z,95.8123
2023-04-16T14:07:12.576Z,95.8194
2023-04-16T14:08:13.711Z,95.7727
2023-04-16T14:09:15.249Z,95.6382
2023-04-16T14:10:15.547Z,95.7531
2023-04-16T14:11:16.494Z,95.9551
2023-04-16T14:12:16.966Z,96.1112
2023-04-16T14:13:18.721Z,96.2266
2023-04-16T14:14:18.938Z,96.1146
2023-04-16T14:15:19.616Z,96.0360
2023-04-16T14:16:20.698Z,96.0366
2023-04-16T14:17:21.862Z,96.1528
2023-04-16T14:18:23.583Z,96.3381
2023-04-16T14:19:24.073Z,96.5754